Terminal Aerodrome Forecast
Issued by NWS

Home | Current Version | Previous Version | Text Only | Print | Product List | Glossary On
Versions: 1 2 3 4 5 6 7 8 9 10 11 12 13 14
669
FTUS42 KFFC 032335
TAFRYY
TAF
KRYY 032335Z 0400/0424 35006KT 6SM -RA OVC080
     FM040200 05007KT 6SM -RA OVC050
     FM040700 09009KT 5SM -RA OVC030
     FM041100 09012KT 5SM -RA BR BKN008 OVC025
     FM041500 09012G20KT 5SM -RA BR BKN006 OVC012
     FM041900 09012G20KT 3SM -RA BR OVC004
      AMD NOT SKED 0404/0412=

USA.gov is the U.S. government's official web portal to all federal, state and local government web resources and services.